Time;durP1;ratioP1;P1;durP2;ratioP2;P2;SDS_P1;SDS_P2;PMS_P1;PMS_P2;Temp;Humidity;BMP_temperature;BMP_pressure;BME280_temperature;BME280_humidity;BME280_pressure;Samples;Min_cycle;Max_cycle;Signal;HPM_P1;HPM_P2
2022/02/26 00:01:43;;;;;;;27.67;17.40;;;;;;;4.88;57.63;100959.84;5026567;28;20497;-73
2022/02/26 00:04:09;;;;;;;22.77;18.00;;;;;;;5.17;58.39;100963.31;5028345;28;20497;-73
2022/02/26 00:06:35;;;;;;;28.70;19.05;;;;;;;5.10;55.28;100976.97;5029413;28;20046;-74
2022/02/26 00:09:02;;;;;;;25.17;17.42;;;;;;;5.26;57.21;100971.41;5012433;28;20076;-73
2022/02/26 00:11:27;;;;;;;31.17;20.10;;;;;;;4.88;59.23;100971.97;5023632;28;20037;-73
2022/02/26 00:13:53;;;;;;;22.75;17.98;;;;;;;4.68;60.67;100958.31;5031528;28;20060;-74
2022/02/26 00:16:18;;;;;;;28.40;20.67;;;;;;;4.80;60.24;100951.78;5020393;28;20048;-73
2022/02/26 00:18:44;;;;;;;21.63;18.60;;;;;;;4.60;61.57;100965.84;5033210;28;20052;-73
2022/02/26 00:21:09;;;;;;;30.58;20.27;;;;;;;4.63;62.25;100956.44;5017171;28;20042;-73
2022/02/26 00:23:49;;;;;;;25.90;19.05;;;;;;;4.45;62.63;100961.03;5025318;28;20466;-73
2022/02/26 00:26:24;;;;;;;28.13;20.20;;;;;;;4.45;61.27;100950.66;5024602;28;20047;-73
2022/02/26 00:29:35;;;;;;;26.17;19.75;;;;;;;4.62;62.36;100977.19;5031630;28;20056;-73
2022/02/26 00:32:12;;;;;;;23.88;18.75;;;;;;;4.29;61.74;100977.81;5037486;28;20041;-73
2022/02/26 00:34:38;;;;;;;32.55;19.58;;;;;;;4.40;61.56;100966.09;5012367;28;20065;-73
2022/02/26 00:37:04;;;;;;;28.75;20.45;;;;;;;4.71;61.02;100976.63;5029005;28;20477;-74
2022/02/26 00:39:30;;;;;;;27.67;19.17;;;;;;;4.49;61.86;100985.41;5030747;28;20435;-73
2022/02/26 00:41:56;;;;;;;27.17;20.05;;;;;;;4.35;60.46;100967.63;5031437;28;20033;-73
2022/02/26 00:44:21;;;;;;;23.23;20.60;;;;;;;4.09;61.78;100965.84;5029439;28;20480;-73
2022/02/26 00:46:47;;;;;;;25.83;17.63;;;;;;;4.23;60.82;100964.59;5031973;28;20492;-73
2022/02/26 00:51:57;;;;;;;27.65;19.63;;;;;;;4.45;60.84;100968.84;5031195;28;20052;-72
2022/02/26 00:54:37;;;;;;;27.70;20.02;;;;;;;4.38;60.89;100967.75;5030268;28;20046;-72
2022/02/26 00:57:03;;;;;;;24.42;18.85;;;;;;;4.38;60.57;100970.34;5022171;28;20041;-72
2022/02/26 00:59:29;;;;;;;34.80;20.38;;;;;;;4.50;60.68;100971.59;5021830;28;20033;-72
2022/02/26 01:01:54;;;;;;;22.30;17.23;;;;;;;4.13;60.63;100967.72;5028063;28;20040;-72
2022/02/26 01:04:20;;;;;;;31.95;22.70;;;;;;;4.15;62.64;100966.94;5029676;28;20595;-73
2022/02/26 01:06:45;;;;;;;27.80;18.90;;;;;;;4.26;60.94;100963.81;5021944;28;20038;-73
2022/02/26 01:09:11;;;;;;;32.53;18.08;;;;;;;4.28;62.02;100967.34;5024066;28;20018;-72
2022/02/26 01:11:37;;;;;;;25.63;18.40;;;;;;;4.33;61.91;100968.41;5019542;28;20128;-72
2022/02/26 01:14:02;;;;;;;23.63;18.02;;;;;;;4.23;61.94;100968.06;5025413;28;20482;-72
2022/02/26 01:16:28;;;;;;;21.83;16.85;;;;;;;4.23;61.02;100967.19;5020248;28;20045;-73
2022/02/26 01:18:53;;;;;;;27.35;16.25;;;;;;;4.22;59.59;100965.44;5029617;28;20046;-73
2022/02/26 01:21:19;;;;;;;27.10;16.80;;;;;;;3.78;59.32;100967.34;5031543;28;20029;-73
2022/02/26 01:23:45;;;;;;;28.90;19.20;;;;;;;4.18;58.98;100961.84;5045343;28;20021;-73
2022/02/26 01:26:11;;;;;;;28.17;18.42;;;;;;;4.62;56.72;100959.00;5028129;28;20045;-72
2022/02/26 01:28:36;;;;;;;25.45;18.20;;;;;;;4.59;54.44;100959.78;5026695;28;20041;-73
2022/02/26 01:31:02;;;;;;;28.60;17.75;;;;;;;4.68;55.18;100973.91;5012009;28;20482;-73
2022/02/26 01:33:28;;;;;;;25.33;16.55;;;;;;;4.76;53.18;100980.25;5035545;28;20056;-72
2022/02/26 01:35:54;;;;;;;28.83;17.10;;;;;;;4.95;52.79;100973.91;5030312;28;20424;-73
2022/02/26 01:38:19;;;;;;;26.88;16.48;;;;;;;4.97;52.29;100983.53;5029624;28;20038;-72
2022/02/26 01:41:03;;;;;;;21.65;14.98;;;;;;;5.05;52.35;100979.44;5029795;28;20099;-72
2022/02/26 01:43:29;;;;;;;23.20;14.73;;;;;;;5.25;51.14;100980.06;5022492;28;20477;-72
2022/02/26 01:45:54;;;;;;;23.52;13.02;;;;;;;4.84;52.50;100966.63;5016046;28;20056;-72
2022/02/26 01:48:20;;;;;;;23.08;12.55;;;;;;;5.13;50.65;100984.00;5029212;28;20080;-72
2022/02/26 01:50:45;;;;;;;18.73;14.50;;;;;;;5.18;50.60;100975.53;5029821;28;20033;-73
2022/02/26 01:53:11;;;;;;;21.27;12.65;;;;;;;5.33;50.70;100979.41;5022673;28;20456;-72
2022/02/26 01:55:37;;;;;;;17.33;11.18;;;;;;;5.25;49.64;100990.47;5020067;28;20057;-73
2022/02/26 01:58:04;;;;;;;23.75;12.27;;;;;;;5.43;49.80;100986.66;5030135;28;20057;-74
2022/02/26 02:00:29;;;;;;;17.13;11.13;;;;;;;5.23;50.46;100980.88;5029467;28;20541;-73
2022/02/26 02:02:57;;;;;;;18.92;12.77;;;;;;;5.38;49.64;100990.84;5029323;28;20042;-73
2022/02/26 02:05:26;;;;;;;17.95;12.20;;;;;;;5.29;50.22;100981.03;5030781;28;20053;-73
2022/02/26 02:07:52;;;;;;;22.17;13.90;;;;;;;5.40;49.86;100987.44;5027477;28;20045;-73
2022/02/26 02:10:19;;;;;;;16.33;10.65;;;;;;;5.49;49.22;100985.13;5029166;28;20477;-73
2022/02/26 02:12:46;;;;;;;24.63;13.45;;;;;;;5.60;49.25;100995.88;5024245;28;20072;-72
2022/02/26 02:15:11;;;;;;;24.15;10.48;;;;;;;5.59;49.43;101007.09;5030632;28;20775;-74
2022/02/26 02:17:36;;;;;;;15.80;10.40;;;;;;;5.21;50.19;100992.94;5030183;28;20029;-73
2022/02/26 02:20:02;;;;;;;16.20;9.30;;;;;;;5.51;49.88;100998.19;5028443;28;20551;-73
2022/02/26 02:22:28;;;;;;;20.77;10.98;;;;;;;5.56;49.83;101004.41;5027407;28;20132;-73
2022/02/26 02:24:53;;;;;;;30.63;10.82;;;;;;;5.64;49.31;100999.44;5028935;28;20057;-73
2022/02/26 02:27:19;;;;;;;15.90;12.07;;;;;;;5.61;49.54;101012.38;5027961;28;20037;-73
2022/02/26 02:29:45;;;;;;;19.92;9.60;;;;;;;5.44;50.34;101012.75;5031225;28;20453;-73
2022/02/26 02:32:10;;;;;;;21.27;10.18;;;;;;;5.57;49.88;101007.91;5027189;28;20045;-74
2022/02/26 02:34:36;;;;;;;14.63;10.35;;;;;;;5.34;49.93;101002.00;5023035;28;20099;-74
2022/02/26 02:37:02;;;;;;;18.52;11.88;;;;;;;5.36;50.27;101015.94;5027926;28;20041;-72
2022/02/26 02:39:28;;;;;;;16.10;11.27;;;;;;;5.30;50.46;101019.25;5028002;28;20060;-74
2022/02/26 02:41:53;;;;;;;19.70;10.52;;;;;;;5.26;51.28;101025.19;5022313;28;20021;-74
2022/02/26 02:44:19;;;;;;;33.00;11.25;;;;;;;4.96;51.62;101025.94;5021813;28;20056;-74
2022/02/26 02:46:45;;;;;;;16.67;10.15;;;;;;;5.14;51.54;101017.88;5020058;28;20041;-74
2022/02/26 02:49:11;;;;;;;15.40;9.68;;;;;;;5.16;51.96;101028.34;5022701;28;20064;-74
2022/02/26 02:51:36;;;;;;;19.05;10.65;;;;;;;5.12;52.31;101027.34;5024139;28;20041;-74
2022/02/26 02:54:02;;;;;;;16.48;11.57;;;;;;;5.31;52.55;101027.94;5030119;28;20474;-73
2022/02/26 02:56:28;;;;;;;19.13;10.85;;;;;;;5.47;52.18;101024.97;5027504;28;20650;-73
2022/02/26 02:58:53;;;;;;;17.48;11.50;;;;;;;5.19;52.93;101023.22;5028964;28;20049;-73
2022/02/26 03:01:19;;;;;;;19.20;10.90;;;;;;;5.25;53.16;101023.44;5027788;28;20119;-73
2022/02/26 03:03:44;;;;;;;16.70;11.75;;;;;;;5.21;53.38;101019.81;5022183;28;20124;-74
2022/02/26 03:06:10;;;;;;;18.58;11.57;;;;;;;5.35;53.75;101033.28;5020876;28;20079;-74
2022/02/26 03:08:35;;;;;;;30.00;11.57;;;;;;;5.34;53.48;101034.13;5024076;28;20049;-74
2022/02/26 03:11:01;;;;;;;14.75;11.45;;;;;;;5.29;53.63;101038.28;5027404;28;20049;-74
2022/02/26 03:13:49;;;;;;;22.50;11.90;;;;;;;5.11;53.99;101043.78;5028408;28;20050;-74
2022/02/26 03:16:16;;;;;;;16.25;12.02;;;;;;;5.11;54.00;101037.72;5026964;28;20045;-74
2022/02/26 03:18:41;;;;;;;18.17;11.93;;;;;;;5.35;54.24;101043.69;5027085;28;20056;-73
2022/02/26 03:21:07;;;;;;;17.75;10.88;;;;;;;5.46;53.82;101046.63;5021189;28;20029;-72
2022/02/26 03:23:32;;;;;;;24.65;13.35;;;;;;;5.55;53.53;101046.91;5027172;28;20022;-72
2022/02/26 03:25:58;;;;;;;17.13;11.43;;;;;;;5.68;53.49;101045.56;5028084;28;20378;-72
2022/02/26 03:28:23;;;;;;;22.77;10.68;;;;;;;5.50;54.09;101061.47;5027887;28;20508;-72
2022/02/26 03:30:49;;;;;;;18.45;13.23;;;;;;;5.60;53.79;101065.28;5026670;28;20042;-72
2022/02/26 03:33:15;;;;;;;18.05;11.45;;;;;;;5.62;53.85;101064.47;5029241;28;20373;-72
2022/02/26 03:35:42;;;;;;;19.48;10.90;;;;;;;5.72;53.64;101055.22;5029143;28;20033;-73
2022/02/26 03:38:07;;;;;;;22.80;11.73;;;;;;;5.54;54.37;101071.16;5026910;28;20124;-72
2022/02/26 03:40:33;;;;;;;16.35;12.75;;;;;;;5.51;54.42;101076.28;5024605;28;20140;-71
2022/02/26 03:42:59;;;;;;;27.02;13.80;;;;;;;5.42;54.31;101066.47;5020592;28;20050;-73
2022/02/26 03:45:25;;;;;;;18.48;10.80;;;;;;;5.40;54.65;101075.94;5024400;28;20045;-73
2022/02/26 03:47:50;;;;;;;16.65;13.07;;;;;;;5.19;55.44;101070.03;5026768;28;20405;-73
2022/02/26 03:50:16;;;;;;;18.05;12.90;;;;;;;5.43;55.02;101075.13;5026344;28;20068;-72
2022/02/26 03:52:41;;;;;;;24.23;13.27;;;;;;;5.22;55.95;101080.53;5022157;28;20459;-72
2022/02/26 03:55:08;;;;;;;17.95;13.55;;;;;;;5.31;55.52;101088.66;5029018;28;20093;-72
2022/02/26 03:57:34;;;;;;;26.90;13.43;;;;;;;5.04;55.80;101070.44;5023099;28;20041;-72
2022/02/26 04:00:00;;;;;;;19.13;13.48;;;;;;;5.23;56.65;101087.53;5020639;28;20393;-72
2022/02/26 04:02:28;;;;;;;22.65;12.65;;;;;;;4.89;57.27;101082.91;5027904;28;20057;-73
2022/02/26 04:04:53;;;;;;;26.42;11.90;;;;;;;5.08;56.90;101078.41;5034044;28;20095;-72
2022/02/26 04:07:19;;;;;;;19.58;13.55;;;;;;;5.35;56.21;101087.03;5025093;28;20042;-72
2022/02/26 04:09:53;;;;;;;22.15;14.02;;;;;;;5.25;56.50;101094.56;5030020;28;20044;-73
2022/02/26 04:12:19;;;;;;;19.20;12.48;;;;;;;5.03;57.52;101100.78;5012896;28;20037;-72
2022/02/26 04:14:44;;;;;;;28.25;13.77;;;;;;;5.23;57.13;101113.56;5028112;28;20040;-72
2022/02/26 04:17:10;;;;;;;16.42;12.18;;;;;;;5.02;57.61;101108.50;5029182;28;20064;-72
2022/02/26 04:19:36;;;;;;;20.23;13.85;;;;;;;5.14;57.86;101100.22;5009574;28;20084;-72
2022/02/26 04:22:01;;;;;;;21.55;13.45;;;;;;;5.07;58.27;101109.53;5027591;28;20041;-73
2022/02/26 04:24:27;;;;;;;30.25;12.45;;;;;;;5.00;58.61;101107.56;5020093;28;20045;-73
2022/02/26 04:26:52;;;;;;;24.92;14.38;;;;;;;4.84;60.03;101117.44;5027648;28;20520;-74
2022/02/26 04:29:18;;;;;;;19.40;14.43;;;;;;;4.51;61.02;101118.88;5013618;28;20517;-74
2022/02/26 04:32:03;;;;;;;29.88;15.05;;;;;;;4.89;60.02;101125.41;5025183;28;20038;-74
2022/02/26 04:34:29;;;;;;;23.50;14.18;;;;;;;4.97;59.72;101116.16;5029284;28;20065;-74
2022/02/26 04:36:54;;;;;;;19.20;13.25;;;;;;;5.03;59.86;101116.38;5030434;28;20038;-74
2022/02/26 04:39:20;;;;;;;25.48;16.08;;;;;;;4.94;60.11;101123.88;5031200;28;21581;-74
2022/02/26 04:41:45;;;;;;;23.15;13.90;;;;;;;4.95;60.02;101123.03;5023066;28;20030;-74
2022/02/26 04:44:11;;;;;;;25.83;16.02;;;;;;;5.00;60.32;101130.97;5032182;28;20033;-74
2022/02/26 04:46:36;;;;;;;31.45;12.98;;;;;;;5.05;60.14;101130.28;5030941;28;20124;-74
2022/02/26 04:49:02;;;;;;;21.58;14.00;;;;;;;5.03;60.80;101137.19;5022004;28;20069;-74
2022/02/26 04:51:27;;;;;;;20.60;14.52;;;;;;;4.91;60.19;101121.13;5018435;28;20069;-72
2022/02/26 04:53:53;;;;;;;19.73;14.27;;;;;;;5.07;60.60;101132.97;5020752;28;20389;-72
2022/02/26 04:56:18;;;;;;;22.70;14.55;;;;;;;4.93;60.79;101137.69;5026245;28;20473;-73
2022/02/26 04:58:44;;;;;;;31.55;13.93;;;;;;;4.96;60.94;101158.59;5015684;28;20049;-72
2022/02/26 05:01:10;;;;;;;16.98;13.23;;;;;;;4.58;62.41;101159.84;5027207;28;20453;-74
2022/02/26 05:03:36;;;;;;;20.90;14.40;;;;;;;4.76;62.00;101155.31;5010954;28;20041;-73
2022/02/26 05:06:02;;;;;;;17.52;13.23;;;;;;;4.88;61.65;101154.84;5026188;28;20037;-72
2022/02/26 05:08:27;;;;;;;20.35;14.18;;;;;;;4.92;61.93;101167.13;5017816;28;20121;-74
2022/02/26 05:10:53;;;;;;;22.95;14.32;;;;;;;5.05;61.20;101169.31;5027942;28;20125;-74
2022/02/26 05:13:19;;;;;;;21.50;13.95;;;;;;;4.97;61.34;101182.91;5029845;28;20053;-73
2022/02/26 05:16:01;;;;;;;19.60;14.38;;;;;;;5.13;61.34;101197.28;5031339;28;20408;-72
2022/02/26 05:18:27;;;;;;;21.08;14.95;;;;;;;5.10;61.65;101203.28;5028957;28;20041;-74
2022/02/26 05:20:52;;;;;;;17.85;14.00;;;;;;;4.81;62.04;101199.66;5029638;28;20381;-72
2022/02/26 05:23:24;;;;;;;19.70;14.32;;;;;;;4.56;62.62;101200.47;5029987;28;20041;-74
2022/02/26 05:25:49;;;;;;;18.45;14.07;;;;;;;4.64;63.21;101197.34;5030149;28;20153;-74
2022/02/26 05:28:14;;;;;;;24.67;16.42;;;;;;;4.41;63.83;101213.78;5022787;28;20037;-74
2022/02/26 05:30:40;;;;;;;22.27;15.95;;;;;;;4.29;64.04;101208.13;5029131;28;20052;-74
2022/02/26 05:33:05;;;;;;;22.40;16.15;;;;;;;4.31;64.47;101217.75;5017884;28;20056;-74
2022/02/26 05:35:31;;;;;;;28.50;16.38;;;;;;;4.47;64.38;101226.13;5024307;28;20052;-74
2022/02/26 05:37:57;;;;;;;23.05;17.05;;;;;;;4.76;63.24;101217.69;5026311;28;20389;-74
2022/02/26 05:40:23;;;;;;;23.42;15.35;;;;;;;4.81;63.25;101236.06;5017450;28;21607;-72
2022/02/26 05:42:48;;;;;;;22.38;15.45;;;;;;;4.90;62.89;101222.53;5030402;28;20453;-72
2022/02/26 05:45:14;;;;;;;29.73;17.45;;;;;;;4.61;64.28;101240.50;5029131;28;20033;-73
2022/02/26 05:47:40;;;;;;;27.60;16.70;;;;;;;5.08;62.52;101224.06;5027018;28;20068;-73
2022/02/26 05:50:06;;;;;;;22.85;16.48;;;;;;;5.23;62.05;101244.50;5030263;28;20911;-72
2022/02/26 05:52:32;;;;;;;25.58;16.90;;;;;;;5.06;62.68;101235.25;5030886;28;20029;-74
2022/02/26 05:54:57;;;;;;;28.15;16.70;;;;;;;5.03;62.56;101230.81;5022967;28;20029;-74
2022/02/26 05:57:23;;;;;;;22.00;16.73;;;;;;;5.11;62.63;101241.47;5024798;28;20042;-74
2022/02/26 05:59:48;;;;;;;22.10;15.52;;;;;;;5.15;62.63;101240.78;5024536;28;20029;-74
2022/02/26 06:02:14;;;;;;;24.58;16.13;;;;;;;5.34;61.82;101237.09;5027927;28;20558;-74
2022/02/26 06:04:40;;;;;;;19.50;14.77;;;;;;;5.30;62.04;101248.22;5025474;28;20068;-74
2022/02/26 06:07:07;;;;;;;31.27;17.23;;;;;;;5.12;62.50;101244.97;5019362;28;20033;-73
2022/02/26 06:09:32;;;;;;;22.58;14.95;;;;;;;5.42;62.09;101245.16;5020765;28;20033;-73
2022/02/26 06:11:58;;;;;;;25.85;17.10;;;;;;;5.38;62.55;101248.47;5022726;28;20446;-74
2022/02/26 06:14:23;;;;;;;24.27;16.10;;;;;;;5.22;63.29;101260.97;5028343;28;20063;-73
2022/02/26 06:16:55;;;;;;;24.63;16.48;;;;;;;5.31;63.17;101255.19;5028044;28;20427;-74
2022/02/26 06:19:20;;;;;;;29.02;16.35;;;;;;;5.29;62.86;101262.94;5025773;28;20033;-74
2022/02/26 06:21:48;;;;;;;30.27;22.65;;;;;;;5.28;62.78;101263.78;5024779;28;20046;-74
2022/02/26 06:24:14;;;;;;;22.50;14.88;;;;;;;5.22;63.23;101270.47;5028894;28;20065;-74
2022/02/26 06:26:39;;;;;;;26.65;16.73;;;;;;;5.32;63.40;101263.91;5020909;28;20021;-74
2022/02/26 06:29:05;;;;;;;26.30;15.98;;;;;;;5.28;63.68;101265.50;5023609;28;20508;-74
2022/02/26 06:31:30;;;;;;;22.52;16.75;;;;;;;5.64;62.61;101263.28;5028328;28;20068;-74
2022/02/26 06:33:56;;;;;;;28.75;15.23;;;;;;;5.61;62.23;101270.09;5028118;28;20420;-74
2022/02/26 06:36:22;;;;;;;27.67;16.33;;;;;;;5.75;62.32;101281.84;5027833;28;20046;-74
2022/02/26 06:38:47;;;;;;;30.13;16.75;;;;;;;5.35;62.97;101290.00;5024391;28;20116;-74
2022/02/26 06:41:12;;;;;;;22.15;14.98;;;;;;;5.24;63.58;101285.31;5027927;28;20052;-74
2022/02/26 06:43:39;;;;;;;23.17;16.13;;;;;;;5.15;64.12;101277.19;5029230;28;20052;-74
2022/02/26 06:46:08;;;;;;;21.42;15.32;;;;;;;5.22;63.89;101289.59;5027712;28;20120;-73
2022/02/26 06:48:34;;;;;;;26.83;16.63;;;;;;;5.35;63.52;101287.41;5017841;28;20047;-73
2022/02/26 06:51:00;;;;;;;23.85;16.92;;;;;;;5.81;62.41;101297.69;5031735;28;20021;-74
2022/02/26 06:53:25;;;;;;;26.35;15.40;;;;;;;5.93;62.03;101300.69;5031821;28;20536;-76
2022/02/26 06:58:27;;;;;;;27.20;17.27;;;;;;;6.04;62.08;101298.50;5042411;27;1385927;-76
2022/02/26 07:00:54;;;;;;;25.52;16.75;;;;;;;6.04;62.18;101314.13;5059760;28;20048;-77
2022/02/26 07:03:23;;;;;;;33.28;17.85;;;;;;;6.35;61.18;101307.28;5048996;28;20057;-76
2022/02/26 07:05:48;;;;;;;24.45;17.10;;;;;;;6.46;61.01;101318.94;5061842;28;20503;-75
2022/02/26 07:08:42;;;;;;;23.48;16.25;;;;;;;5.91;62.64;101318.00;5048964;28;20124;-75
2022/02/26 07:11:08;;;;;;;21.85;16.00;;;;;;;6.20;61.79;101328.50;5053800;28;20048;-75
2022/02/26 07:13:33;;;;;;;24.40;16.25;;;;;;;6.13;61.88;101317.03;5065723;28;20044;-76
2022/02/26 07:15:59;;;;;;;22.65;16.45;;;;;;;6.35;61.33;101333.34;5074545;28;20051;-77
2022/02/26 07:18:25;;;;;;;27.17;17.98;;;;;;;6.44;61.47;101322.31;5067794;28;20044;-74
2022/02/26 07:20:51;;;;;;;24.02;16.25;;;;;;;6.09;62.36;101319.50;5061914;28;20041;-74
2022/02/26 07:23:17;;;;;;;30.42;17.05;;;;;;;6.49;61.89;101329.47;5053306;28;20087;-76
2022/02/26 07:25:45;;;;;;;19.65;16.05;;;;;;;6.39;62.12;101330.03;5064370;28;20045;-73
2022/02/26 07:28:11;;;;;;;26.17;16.85;;;;;;;6.13;62.71;101334.38;5065972;28;20049;-73
2022/02/26 07:30:37;;;;;;;24.13;15.75;;;;;;;6.36;61.72;101340.31;5064661;28;20043;-74
2022/02/26 07:33:07;;;;;;;22.98;15.57;;;;;;;6.20;62.84;101344.16;5057979;28;20037;-73
2022/02/26 07:35:33;;;;;;;30.40;17.45;;;;;;;6.54;62.52;101340.03;5071169;28;20063;-73
2022/02/26 07:37:59;;;;;;;33.75;16.80;;;;;;;6.73;61.82;101346.69;5062138;28;20041;-73
2022/02/26 07:40:25;;;;;;;20.60;15.52;;;;;;;6.76;61.27;101341.56;5069227;28;20041;-73
2022/02/26 07:42:51;;;;;;;23.15;16.70;;;;;;;6.64;61.61;101336.00;5062061;28;20094;-73
2022/02/26 07:45:17;;;;;;;25.73;17.50;;;;;;;6.76;61.38;101336.34;5063442;28;20414;-74
2022/02/26 07:47:42;;;;;;;23.15;15.05;;;;;;;6.45;62.11;101344.97;5068821;28;20024;-73
2022/02/26 07:50:08;;;;;;;25.42;15.32;;;;;;;6.70;61.78;101354.44;5069321;28;20041;-73
2022/02/26 07:52:34;;;;;;;19.73;15.95;;;;;;;6.76;61.51;101332.00;5073596;28;20048;-74
2022/02/26 07:55:01;;;;;;;23.45;15.85;;;;;;;6.91;60.86;101344.66;5075299;28;20491;-73
2022/02/26 07:57:27;;;;;;;28.83;13.57;;;;;;;6.96;60.18;101335.25;5069174;28;20049;-75
2022/02/26 07:59:53;;;;;;;18.70;14.10;;;;;;;6.88;60.94;101348.88;5067759;28;20037;-75
2022/02/26 08:02:19;;;;;;;19.17;14.13;;;;;;;6.87;60.65;101350.63;5064736;28;20527;-76
2022/02/26 08:04:44;;;;;;;22.70;13.00;;;;;;;6.83;60.65;101353.09;5065646;28;20404;-75
2022/02/26 08:07:12;;;;;;;16.20;12.13;;;;;;;6.70;61.59;101359.66;5078470;28;20448;-75
2022/02/26 08:09:37;;;;;;;18.15;13.15;;;;;;;6.88;60.78;101348.88;5076974;28;20024;-73
2022/02/26 08:12:03;;;;;;;22.50;15.80;;;;;;;6.96;61.04;101369.16;5037343;28;20385;-72
2022/02/26 08:14:29;;;;;;;34.25;14.02;;;;;;;7.35;60.03;101359.81;5044078;28;20094;-73
2022/02/26 08:16:54;;;;;;;22.35;13.82;;;;;;;7.21;59.99;101341.19;5053499;28;20439;-73
2022/02/26 08:19:33;;;;;;;21.67;13.35;;;;;;;7.05;60.56;101347.69;5069642;28;20048;-71
2022/02/26 08:21:59;;;;;;;20.48;12.60;;;;;;;7.30;60.36;101358.81;5058659;28;20041;-71
2022/02/26 08:24:25;;;;;;;16.10;12.63;;;;;;;7.23;60.04;101351.66;5050580;28;20460;-71
2022/02/26 08:26:51;;;;;;;20.63;13.30;;;;;;;7.37;60.26;101358.16;5049900;28;20213;-71
2022/02/26 08:29:17;;;;;;;25.50;12.95;;;;;;;7.17;60.35;101348.03;5062233;28;20036;-73
2022/02/26 08:31:43;;;;;;;16.92;14.23;;;;;;;7.24;60.66;101329.94;5050297;28;20049;-71
2022/02/26 08:34:09;;;;;;;18.63;11.10;;;;;;;7.20;60.47;101347.22;5049862;28;20472;-71
2022/02/26 08:36:36;;;;;;;18.58;11.65;;;;;;;7.45;59.73;101351.44;5049535;28;20033;-76
2022/02/26 08:39:03;;;;;;;17.42;12.82;;;;;;;7.50;59.91;101356.78;5051850;28;20187;-72
2022/02/26 08:41:28;;;;;;;18.70;11.75;;;;;;;7.37;60.45;101358.16;5044002;28;20025;-74
2022/02/26 08:43:54;;;;;;;17.35;12.20;;;;;;;7.39;59.86;101318.19;5041898;28;20045;-75
2022/02/26 08:46:20;;;;;;;29.27;12.13;;;;;;;7.55;59.40;101344.72;5040446;28;20044;-72
2022/02/26 08:48:45;;;;;;;26.83;13.35;;;;;;;7.96;58.61;101343.22;5054079;28;20107;-75
2022/02/26 08:51:11;;;;;;;16.65;12.13;;;;;;;7.99;57.97;101352.88;5055028;28;20021;-75
2022/02/26 08:53:47;;;;;;;16.55;11.30;;;;;;;8.21;58.10;101365.59;5050632;28;20780;-75
2022/02/26 08:56:12;;;;;;;19.73;11.63;;;;;;;7.93;57.88;101350.97;5073266;28;20387;-75
2022/02/26 08:58:40;;;;;;;15.98;10.27;;;;;;;8.10;58.11;101345.28;5045708;28;20052;-75
2022/02/26 09:01:06;;;;;;;11.90;9.98;;;;;;;7.87;58.81;101347.31;5050070;28;20524;-75
2022/02/26 09:03:31;;;;;;;20.02;11.85;;;;;;;7.98;58.00;101344.16;5049509;28;20128;-75
2022/02/26 09:05:57;;;;;;;17.38;9.52;;;;;;;8.07;57.64;101351.31;5048494;28;20029;-75
2022/02/26 09:08:44;;;;;;;19.20;10.70;;;;;;;8.02;58.14;101352.94;5051293;28;20037;-75
2022/02/26 09:11:10;;;;;;;19.02;12.68;;;;;;;8.48;57.16;101359.34;5041567;28;20037;-74
2022/02/26 09:13:39;;;;;;;14.27;9.82;;;;;;;8.97;55.80;101355.22;5043344;28;20632;-74
2022/02/26 09:16:05;;;;;;;13.88;10.57;;;;;;;8.82;55.65;101353.13;5050611;28;20048;-74
2022/02/26 09:18:31;;;;;;;14.80;9.25;;;;;;;9.25;54.65;101366.28;5047151;28;20052;-70
2022/02/26 09:20:56;;;;;;;18.23;11.32;;;;;;;9.40;54.33;101352.59;5042955;28;20368;-70
2022/02/26 09:23:22;;;;;;;19.80;11.43;;;;;;;8.93;55.17;101363.84;5048177;28;20041;-70
2022/02/26 09:25:48;;;;;;;24.08;11.13;;;;;;;8.66;55.73;101359.78;5053357;28;20090;-74
2022/02/26 09:28:14;;;;;;;18.65;13.85;;;;;;;8.88;55.71;101362.88;5049932;28;20068;-72
2022/02/26 09:30:40;;;;;;;20.77;14.48;;;;;;;9.21;55.04;101365.31;5044301;28;20053;-72
2022/02/26 09:33:06;;;;;;;14.63;9.88;;;;;;;9.72;53.28;101359.34;5055726;28;20029;-74
2022/02/26 09:35:50;;;;;;;14.85;8.95;;;;;;;9.17;54.13;101345.16;5058165;28;20516;-73
2022/02/26 09:38:20;;;;;;;18.45;9.50;;;;;;;9.46;53.20;101366.72;5048997;28;20043;-73
2022/02/26 09:40:45;;;;;;;21.27;8.73;;;;;;;9.51;53.43;101362.44;5047620;28;20535;-72
2022/02/26 09:43:10;;;;;;;22.95;7.95;;;;;;;9.18;53.97;101348.69;5048311;28;20037;-73
2022/02/26 09:45:52;;;;;;;15.05;8.77;;;;;;;9.33;53.82;101359.44;5048815;28;20538;-72
2022/02/26 09:48:19;;;;;;;11.52;7.78;;;;;;;8.66;55.12;101359.78;5039529;28;20707;-74
2022/02/26 09:50:45;;;;;;;19.70;9.27;;;;;;;9.40;54.41;101358.72;5049413;28;20033;-73
2022/02/26 09:53:14;;;;;;;19.55;8.40;;;;;;;9.59;53.59;101359.97;5045860;28;20423;-72
2022/02/26 09:55:40;;;;;;;17.15;7.95;;;;;;;9.69;52.44;101356.69;5051312;28;20060;-72
2022/02/26 09:58:06;;;;;;;12.50;8.13;;;;;;;8.98;53.79;101356.09;5048556;28;20131;-72
2022/02/26 10:00:31;;;;;;;12.27;8.40;;;;;;;9.77;52.76;101356.81;5047356;28;20037;-73
2022/02/26 10:02:57;;;;;;;11.05;8.10;;;;;;;8.80;53.73;101375.78;5040306;28;20030;-73
2022/02/26 10:05:23;;;;;;;21.02;8.18;;;;;;;8.72;54.81;101366.00;5055882;28;20041;-72
2022/02/26 10:07:50;;;;;;;12.75;8.55;;;;;;;8.51;54.90;101353.28;5048409;28;20044;-74
2022/02/26 10:10:22;;;;;;;12.52;8.25;;;;;;;8.53;55.09;101364.69;5046910;28;20037;-72
2022/02/26 10:12:57;;;;;;;13.80;8.35;;;;;;;8.78;54.01;101380.09;5048952;28;20490;-73
2022/02/26 10:15:27;;;;;;;10.85;7.03;;;;;;;8.91;54.02;101376.00;5044774;28;20582;-75
2022/02/26 10:18:45;;;;;;;9.95;7.13;;;;;;;9.77;52.08;101374.28;5028403;28;20114;-74
2022/02/26 10:21:41;;;;;;;10.82;6.82;;;;;;;9.66;51.99;101380.19;5052078;28;20034;-74
2022/02/26 10:24:24;;;;;;;18.08;7.28;;;;;;;9.32;52.05;101381.28;5048018;28;20064;-73
2022/02/26 10:26:55;;;;;;;13.95;7.18;;;;;;;9.18;52.86;101380.97;5052550;28;20116;-73
2022/02/26 10:29:22;;;;;;;13.23;8.80;;;;;;;9.56;51.83;101377.38;5046470;28;20033;-73
2022/02/26 10:31:54;;;;;;;10.13;7.38;;;;;;;9.37;51.55;101370.88;5037796;28;20041;-73
2022/02/26 10:34:46;;;;;;;20.13;7.80;;;;;;;9.26;52.01;101361.06;5048320;28;20124;-73
2022/02/26 10:37:19;;;;;;;12.05;7.93;;;;;;;8.83;53.45;101368.00;5046953;28;20064;-71
2022/02/26 10:39:48;;;;;;;14.07;9.25;;;;;;;9.74;52.06;101359.38;5047921;28;20053;-72
2022/02/26 10:42:30;;;;;;;11.88;8.10;;;;;;;10.02;51.09;101358.16;5046300;28;20504;-73
2022/02/26 10:45:10;;;;;;;10.82;7.10;;;;;;;9.47;51.80;101363.22;5047095;28;20021;-72
2022/02/26 10:47:38;;;;;;;15.48;8.82;;;;;;;9.49;52.50;101351.03;5043045;28;20041;-72
2022/02/26 10:50:34;;;;;;;15.07;8.73;;;;;;;10.67;50.26;101360.09;5068925;28;20068;-72
2022/02/26 10:53:02;;;;;;;11.80;7.38;;;;;;;11.18;48.34;101359.03;5034824;28;20025;-72
2022/02/26 10:55:58;;;;;;;10.63;7.38;;;;;;;10.21;49.95;101375.09;5047767;28;20051;-71
2022/02/26 10:58:27;;;;;;;11.25;7.25;;;;;;;10.35;49.42;101360.47;5045213;28;20056;-72
2022/02/26 11:01:00;;;;;;;27.25;9.75;;;;;;;10.63;49.68;101374.03;5045931;28;20041;-74
2022/02/26 11:03:25;;;;;;;20.38;9.27;;;;;;;11.14;48.17;101370.41;5048139;28;20033;-73
2022/02/26 11:06:22;;;;;;;12.40;7.20;;;;;;;11.12;47.46;101372.13;5040697;28;20029;-73
2022/02/26 11:09:10;;;;;;;14.43;7.70;;;;;;;11.56;47.20;101363.88;5043005;28;20041;-73
2022/02/26 11:11:36;;;;;;;13.25;6.50;;;;;;;11.32;46.78;101364.47;5041991;28;20099;-73
2022/02/26 11:14:02;;;;;;;13.50;6.90;;;;;;;11.42;47.07;101357.56;5049702;28;20144;-73
2022/02/26 11:16:30;;;;;;;8.75;5.88;;;;;;;10.11;49.42;101374.03;5047833;28;20052;-73
2022/02/26 11:18:59;;;;;;;11.18;6.95;;;;;;;10.07;49.98;101368.72;5045353;28;20041;-73
2022/02/26 11:21:24;;;;;;;9.68;6.75;;;;;;;10.31;49.07;101371.78;5045567;28;20128;-73
2022/02/26 11:23:50;;;;;;;17.80;6.50;;;;;;;9.73;50.13;101365.47;5048107;28;20123;-73
2022/02/26 11:26:20;;;;;;;11.88;5.70;;;;;;;9.90;49.67;101376.25;5054432;28;20044;-73
2022/02/26 11:28:49;;;;;;;9.10;6.10;;;;;;;9.57;50.68;101377.38;5044756;28;20044;-73